Time;durP1;ratioP1;P1;durP2;ratioP2;P2;SDS_P1;SDS_P2;PMS_P1;PMS_P2;Temp;Humidity;BMP_temperature;BMP_pressure;BME280_temperature;BME280_humidity;BME280_pressure;Samples;Min_cycle;Max_cycle;Signal;HPM_P1;HPM_P2
2021/06/21 00:00:26;;;;;;;2.97;2.58;;;;;;;13.55;65.54;100915.38;4160716;28;20088;-85
2021/06/21 00:02:27;;;;;;;4.30;2.90;;;;;;;13.68;65.08;100920.59;4175360;28;20037;-86
2021/06/21 00:04:27;;;;;;;3.42;2.97;;;;;;;13.61;65.44;100919.91;4160844;28;20025;-87
2021/06/21 00:06:28;;;;;;;7.57;3.38;;;;;;;13.68;65.30;100942.59;4146655;28;20044;-86
2021/06/21 00:08:28;;;;;;;5.07;2.95;;;;;;;13.57;65.13;100932.47;4146915;28;20041;-85
2021/06/21 00:10:28;;;;;;;5.97;3.67;;;;;;;13.49;65.20;100916.34;4168482;28;20027;-84
2021/06/21 00:12:29;;;;;;;3.17;2.35;;;;;;;13.44;65.28;100917.06;4160374;28;20045;-90
2021/06/21 00:14:29;;;;;;;5.20;2.60;;;;;;;13.31;65.38;100928.28;4160948;28;20041;-86
2021/06/21 00:16:30;;;;;;;3.95;3.17;;;;;;;13.33;65.32;100926.13;4175989;28;20282;-87
2021/06/21 00:18:30;;;;;;;4.90;2.72;;;;;;;13.43;64.71;100929.13;4161614;28;20072;-86
2021/06/21 00:20:31;;;;;;;2.92;2.55;;;;;;;13.53;64.46;100926.63;4158879;28;20024;-85
2021/06/21 00:22:32;;;;;;;4.57;2.20;;;;;;;13.47;64.48;100934.97;4146380;28;20029;-86
2021/06/21 00:24:33;;;;;;;3.90;2.20;;;;;;;13.44;64.30;100935.44;4160788;28;20037;-83
2021/06/21 00:26:34;;;;;;;4.00;1.80;;;;;;;13.43;64.72;100920.88;4185097;28;20111;-88
2021/06/21 00:28:34;;;;;;;3.75;2.10;;;;;;;13.53;63.94;100932.09;4164985;28;20104;-88
2021/06/21 00:30:35;;;;;;;4.82;2.10;;;;;;;13.40;64.45;100928.78;4143597;28;20025;-88
2021/06/21 00:32:35;;;;;;;5.43;3.05;;;;;;;13.51;64.39;100947.16;4145565;28;20370;-90
2021/06/21 00:34:36;;;;;;;3.65;2.83;;;;;;;13.46;64.32;100925.06;4144189;28;20053;-84
2021/06/21 00:36:36;;;;;;;3.25;2.25;;;;;;;13.45;64.67;100948.13;4159805;28;20460;-85
2021/06/21 00:38:37;;;;;;;2.72;2.30;;;;;;;13.37;64.84;100957.56;4170944;28;20095;-86
2021/06/21 00:40:38;;;;;;;3.85;2.65;;;;;;;13.47;64.72;100945.97;4144656;28;20412;-87
2021/06/21 00:42:44;;;;;;;3.20;2.35;;;;;;;13.69;64.10;100951.69;4160644;28;20116;-86
2021/06/21 00:44:46;;;;;;;6.43;3.35;;;;;;;13.49;64.47;100952.91;4177752;28;21383;-88
2021/06/21 00:46:47;;;;;;;4.15;2.65;;;;;;;13.41;64.70;100942.28;4161001;28;20072;-87
2021/06/21 00:48:47;;;;;;;3.20;2.63;;;;;;;13.42;64.83;100956.84;4162316;28;20029;-89
2021/06/21 00:50:47;;;;;;;8.40;3.28;;;;;;;13.38;64.56;100937.25;4158477;28;20064;-82
2021/06/21 00:52:52;;;;;;;6.95;2.60;;;;;;;13.62;64.33;100962.81;4159757;28;20468;-87
2021/06/21 00:55:00;;;;;;;5.13;2.63;;;;;;;13.40;64.92;100946.09;4177927;28;20020;-86
2021/06/21 00:57:00;;;;;;;5.53;2.38;;;;;;;13.70;64.58;100958.84;4160800;28;20029;-87
2021/06/21 00:59:02;;;;;;;4.45;2.85;;;;;;;13.42;64.81;100941.19;4126766;28;20378;-86
2021/06/21 01:04:00;;;;;;;2.50;2.17;;;;;;;13.47;65.08;100941.31;4172864;28;20063;-89
2021/06/21 01:06:02;;;;;;;3.90;3.60;;;;;;;13.41;65.19;100944.16;4161067;28;20021;-86
2021/06/21 01:08:09;;;;;;;4.88;3.22;;;;;;;13.65;64.77;100953.25;4143227;28;20038;-86
2021/06/21 01:10:11;;;;;;;4.85;2.67;;;;;;;13.63;64.58;100948.00;4152903;28;20060;-87
2021/06/21 01:12:31;;;;;;;5.50;2.97;;;;;;;13.62;64.87;100943.56;4162999;28;21358;-86
2021/06/21 01:14:43;;;;;;;3.60;2.92;;;;;;;13.48;65.24;100951.22;4188674;28;20040;-84
2021/06/21 01:17:09;;;;;;;3.78;2.95;;;;;;;13.59;65.69;100949.53;4175152;28;20134;-86
2021/06/21 01:19:28;;;;;;;4.05;2.60;;;;;;;13.72;65.53;100946.53;4177299;28;20159;-89
2021/06/21 01:21:31;;;;;;;4.90;3.08;;;;;;;13.64;65.38;100943.31;4175429;28;20151;-86
2021/06/21 01:24:06;;;;;;;5.07;3.58;;;;;;;13.77;65.02;100939.50;4177393;28;20021;-85
2021/06/21 01:26:09;;;;;;;6.55;2.92;;;;;;;13.64;65.27;100946.94;4157346;28;20133;-85
2021/06/21 01:28:54;;;;;;;5.95;3.30;;;;;;;13.37;65.62;100941.06;4159831;28;20037;-84
2021/06/21 01:33:06;;;;;;;4.40;3.75;;;;;;;13.51;65.31;100936.16;4882118;22;20084;-86
2021/06/21 01:35:12;;;;;;;5.93;4.05;;;;;;;13.34;65.75;100944.31;4136633;28;20061;-89
2021/06/21 01:37:16;;;;;;;7.00;4.65;;;;;;;13.32;65.64;100935.47;4140243;28;20126;-86
2021/06/21 01:39:17;;;;;;;5.95;3.30;;;;;;;13.51;65.54;100948.00;4143824;28;20033;-87
2021/06/21 01:41:28;;;;;;;4.47;3.65;;;;;;;13.70;65.05;100945.09;4105540;28;20404;-82
2021/06/21 01:43:38;;;;;;;4.38;3.15;;;;;;;13.42;65.69;100932.09;4138195;28;20037;-85
2021/06/21 01:45:40;;;;;;;6.50;3.00;;;;;;;13.57;65.63;100962.72;4127861;28;20580;-86
2021/06/21 01:47:42;;;;;;;4.35;2.97;;;;;;;13.54;65.26;100933.75;4140851;28;20028;-84
2021/06/21 01:49:45;;;;;;;4.82;3.40;;;;;;;13.58;65.54;100947.03;4125229;28;20041;-86
2021/06/21 01:51:47;;;;;;;6.20;4.50;;;;;;;13.32;65.82;100943.72;4137569;28;20471;-84
2021/06/21 01:53:51;;;;;;;5.00;3.80;;;;;;;13.32;65.87;100935.47;4155481;28;20101;-84
2021/06/21 01:56:00;;;;;;;7.13;3.35;;;;;;;13.32;65.74;100946.47;4160517;28;20123;-87
2021/06/21 01:58:01;;;;;;;9.70;3.63;;;;;;;13.18;66.08;100932.13;4140610;28;20204;-86
2021/06/21 02:00:08;;;;;;;7.40;3.78;;;;;;;13.33;65.78;100931.63;4136048;28;20523;-87
2021/06/21 02:02:08;;;;;;;7.70;4.15;;;;;;;13.55;65.69;100942.88;4148485;28;20116;-84
2021/06/21 02:04:10;;;;;;;5.03;3.92;;;;;;;13.26;66.01;100939.19;4157707;28;20431;-85
2021/06/21 02:06:12;;;;;;;9.80;4.43;;;;;;;13.41;65.83;100931.28;4157334;28;20423;-85
2021/06/21 02:08:14;;;;;;;6.35;4.60;;;;;;;13.30;65.98;100943.97;4156463;28;20032;-87
2021/06/21 02:10:17;;;;;;;6.88;3.88;;;;;;;13.40;66.18;100946.09;4138880;28;20057;-84
2021/06/21 02:12:19;;;;;;;6.03;3.78;;;;;;;13.26;66.45;100956.50;4149295;28;20032;-83
2021/06/21 02:14:24;;;;;;;6.78;4.00;;;;;;;13.22;66.29;100954.47;4134656;28;20128;-86
2021/06/21 02:16:26;;;;;;;7.40;4.38;;;;;;;13.17;66.55;100947.75;4176345;28;20025;-85
2021/06/21 02:18:27;;;;;;;9.80;4.35;;;;;;;13.32;66.25;100960.22;4160004;28;20040;-83
2021/06/21 02:20:28;;;;;;;7.97;4.15;;;;;;;13.26;66.16;100939.19;4157390;28;20052;-84
2021/06/21 02:22:30;;;;;;;6.07;4.75;;;;;;;13.29;65.88;100953.28;4140161;28;20045;-84
2021/06/21 02:24:31;;;;;;;10.55;4.47;;;;;;;13.39;65.98;100949.09;4139003;28;20064;-85
2021/06/21 02:26:31;;;;;;;5.93;4.00;;;;;;;13.28;66.25;100954.34;4112252;28;20031;-87
2021/06/21 02:28:34;;;;;;;4.65;4.15;;;;;;;13.35;66.17;100959.72;4134909;28;20040;-84
2021/06/21 02:30:36;;;;;;;8.45;4.38;;;;;;;13.36;66.03;100951.25;4158866;28;20029;-84
2021/06/21 02:32:37;;;;;;;8.52;4.22;;;;;;;13.37;65.93;100963.06;4137536;28;20034;-84
2021/06/21 02:34:38;;;;;;;5.28;4.18;;;;;;;13.05;65.92;100949.66;4150416;28;20158;-87
2021/06/21 02:36:39;;;;;;;6.90;3.72;;;;;;;13.27;65.32;100952.69;4159597;28;20042;-86
2021/06/21 02:38:39;;;;;;;6.05;2.70;;;;;;;13.21;65.19;100944.53;4147896;28;20464;-85
2021/06/21 02:40:41;;;;;;;6.13;3.63;;;;;;;13.24;65.00;100949.53;4151111;28;20029;-90
2021/06/21 02:42:43;;;;;;;5.72;3.33;;;;;;;13.29;64.70;100961.50;4136307;28;20813;-83
2021/06/21 02:44:43;;;;;;;5.32;3.75;;;;;;;13.23;64.86;100964.38;4149725;28;20039;-86
2021/06/21 02:46:44;;;;;;;5.75;3.40;;;;;;;13.12;65.10;100975.13;4143014;28;20045;-87
2021/06/21 02:48:45;;;;;;;6.10;3.95;;;;;;;13.12;65.16;100964.13;4123360;28;20066;-87
2021/06/21 02:50:46;;;;;;;5.47;3.50;;;;;;;13.22;64.54;100958.03;4155512;28;20068;-87
2021/06/21 02:53:01;;;;;;;7.32;3.17;;;;;;;13.08;64.60;100960.16;4119566;28;20140;-86
2021/06/21 02:55:08;;;;;;;10.15;3.10;;;;;;;12.81;64.25;100959.75;4132576;28;20041;-86
2021/06/21 02:57:14;;;;;;;4.18;2.83;;;;;;;13.08;64.17;100956.59;4140379;28;20034;-86
2021/06/21 02:59:20;;;;;;;3.50;2.72;;;;;;;13.03;64.58;100957.31;4132458;28;20034;-87
2021/06/21 03:01:22;;;;;;;5.03;4.32;;;;;;;12.63;64.66;100920.28;4139718;28;20069;-85
2021/06/21 03:03:26;;;;;;;5.15;3.92;;;;;;;12.87;64.95;100942.34;4147895;28;20442;-87
2021/06/21 03:05:29;;;;;;;6.40;4.60;;;;;;;12.69;65.10;100902.03;4130093;28;20033;-86
2021/06/21 03:07:30;;;;;;;4.15;3.60;;;;;;;12.66;65.41;100935.47;4156978;28;20044;-86
2021/06/21 03:09:31;;;;;;;3.28;2.55;;;;;;;12.86;65.29;100934.31;4151719;28;20034;-84
2021/06/21 03:11:33;;;;;;;7.72;3.75;;;;;;;12.63;65.61;100908.47;4130396;28;20060;-83
2021/06/21 03:13:35;;;;;;;6.40;3.03;;;;;;;12.65;65.42;100911.81;4143187;28;20052;-86
2021/06/21 03:15:36;;;;;;;4.45;3.85;;;;;;;12.86;65.49;100931.56;4131039;28;20036;-83
2021/06/21 03:17:38;;;;;;;6.63;4.80;;;;;;;12.52;65.63;100901.03;4157157;28;20025;-83
2021/06/21 03:19:39;;;;;;;6.78;3.28;;;;;;;12.72;66.08;100915.28;4121593;28;20039;-82
2021/06/21 03:21:43;;;;;;;4.53;3.92;;;;;;;12.64;65.86;100929.38;4147904;28;20026;-86
2021/06/21 03:23:44;;;;;;;5.25;3.70;;;;;;;12.43;66.29;100922.50;4141471;28;20042;-85
2021/06/21 03:25:50;;;;;;;6.15;4.18;;;;;;;12.59;66.33;100916.34;4133207;28;20031;-88
2021/06/21 03:27:50;;;;;;;5.78;3.83;;;;;;;12.44;66.52;100886.56;4140507;28;20041;-83
2021/06/21 03:29:51;;;;;;;5.93;4.05;;;;;;;12.44;66.50;100893.97;4128163;28;20034;-86
2021/06/21 03:31:54;;;;;;;5.40;4.45;;;;;;;12.49;66.80;100912.50;4152019;28;20055;-87
2021/06/21 03:33:54;;;;;;;4.80;4.05;;;;;;;12.66;67.23;100908.00;4142483;28;20050;-85
2021/06/21 03:35:55;;;;;;;4.22;3.00;;;;;;;12.43;67.19;100912.34;4149105;28;20033;-84
2021/06/21 03:37:56;;;;;;;6.30;3.08;;;;;;;12.50;67.42;100905.91;4153105;28;20411;-82
2021/06/21 03:39:57;;;;;;;7.25;4.40;;;;;;;12.49;67.59;100907.84;4133767;28;20041;-83
2021/06/21 03:41:57;;;;;;;5.53;4.05;;;;;;;12.20;68.12;100917.75;4139760;28;20033;-86
2021/06/21 03:43:58;;;;;;;7.50;4.30;;;;;;;12.17;67.98;100896.25;4128787;28;20145;-85
2021/06/21 03:46:02;;;;;;;9.65;4.68;;;;;;;12.27;68.20;100919.34;4134887;28;20159;-87
2021/06/21 03:48:04;;;;;;;6.82;5.30;;;;;;;12.40;67.66;100904.56;4139457;28;20057;-88
2021/06/21 03:50:06;;;;;;;6.82;4.38;;;;;;;12.15;67.90;100882.78;4126369;28;20033;-90
2021/06/21 03:52:07;;;;;;;6.55;3.70;;;;;;;12.41;67.80;100914.50;4132625;28;20041;-87
2021/06/21 03:54:07;;;;;;;8.93;4.95;;;;;;;12.50;67.83;100919.63;4149552;28;20029;-86
2021/06/21 03:56:08;;;;;;;6.38;3.97;;;;;;;12.38;68.09;100909.47;4133630;28;20465;-87
2021/06/21 03:58:08;;;;;;;10.13;4.63;;;;;;;12.42;68.39;100921.66;4132452;28;20049;-87
2021/06/21 04:00:18;;;;;;;5.32;4.38;;;;;;;12.18;68.72;100912.50;4137973;28;20369;-87
2021/06/21 04:02:18;;;;;;;8.65;4.13;;;;;;;12.29;68.46;100905.38;4138390;28;20026;-91
2021/06/21 04:04:19;;;;;;;6.70;4.30;;;;;;;12.28;68.62;100901.81;4126739;28;20038;-86
2021/06/21 04:06:19;;;;;;;7.97;4.82;;;;;;;12.35;68.62;100912.69;4125998;28;20038;-88
2021/06/21 04:08:20;;;;;;;10.55;4.90;;;;;;;12.41;68.99;100919.97;4108649;28;20395;-89
2021/06/21 04:10:26;;;;;;;9.93;4.13;;;;;;;12.36;69.07;100910.75;4153100;28;20030;-84
2021/06/21 04:12:27;;;;;;;12.43;5.18;;;;;;;12.04;69.76;100894.56;4152133;28;20087;-87
2021/06/21 04:14:27;;;;;;;8.93;4.07;;;;;;;12.39;69.16;100908.41;4157818;28;20571;-86
2021/06/21 04:16:28;;;;;;;10.32;5.60;;;;;;;12.21;69.36;100883.75;4152745;28;20403;-84
2021/06/21 04:18:28;;;;;;;8.40;3.83;;;;;;;12.29;69.39;100894.41;4134148;28;20599;-86
2021/06/21 04:20:29;;;;;;;13.77;5.80;;;;;;;12.23;69.69;100909.88;4153037;28;20080;-84
2021/06/21 04:22:29;;;;;;;5.68;4.07;;;;;;;12.29;69.49;100899.88;4135750;28;20038;-87
2021/06/21 04:24:30;;;;;;;9.27;3.42;;;;;;;12.33;69.63;100909.34;4130788;28;20042;-87
2021/06/21 04:26:30;;;;;;;5.20;3.72;;;;;;;12.17;69.72;100894.34;4132814;28;20040;-86
2021/06/21 04:28:31;;;;;;;9.73;4.00;;;;;;;12.21;69.46;100878.28;4148291;28;20022;-87
2021/06/21 04:30:32;;;;;;;5.35;3.80;;;;;;;12.35;69.42;100887.16;4127984;28;20852;-86
2021/06/21 04:32:32;;;;;;;8.30;4.68;;;;;;;12.34;69.17;100893.69;4137066;28;20046;-86
2021/06/21 04:34:33;;;;;;;8.52;4.78;;;;;;;12.37;69.45;100883.09;4154369;28;20148;-84
2021/06/21 04:36:33;;;;;;;7.35;3.47;;;;;;;12.17;69.80;100869.66;4156070;28;20566;-84
2021/06/21 04:38:34;;;;;;;14.10;5.03;;;;;;;12.28;69.60;100890.84;4151752;28;20562;-87
2021/06/21 04:40:35;;;;;;;8.45;4.25;;;;;;;12.32;69.27;100869.22;4158431;28;20033;-86
2021/06/21 04:42:36;;;;;;;11.73;4.78;;;;;;;12.34;69.34;100900.03;4152098;28;20032;-87
2021/06/21 04:44:36;;;;;;;6.60;3.97;;;;;;;12.21;69.54;100870.88;4137619;28;20038;-86
2021/06/21 04:46:37;;;;;;;7.85;4.22;;;;;;;12.39;69.55;100889.19;4154988;28;20034;-88
2021/06/21 04:48:38;;;;;;;9.90;4.50;;;;;;;12.34;70.11;100890.97;4134462;28;20511;-90
2021/06/21 04:50:40;;;;;;;13.32;4.43;;;;;;;12.04;70.50;100875.34;4151876;28;20041;-91
2021/06/21 04:52:42;;;;;;;12.27;4.28;;;;;;;12.28;70.42;100876.25;4148532;28;20423;-87
2021/06/21 04:54:43;;;;;;;6.50;3.75;;;;;;;12.35;70.34;100879.75;4134303;28;21278;-88
2021/06/21 04:56:43;;;;;;;10.15;4.35;;;;;;;12.09;71.01;100872.72;4108320;28;20027;-90
2021/06/21 04:58:44;;;;;;;6.63;4.05;;;;;;;12.24;70.94;100884.13;4154481;28;20438;-90
2021/06/21 05:00:44;;;;;;;8.25;4.10;;;;;;;12.33;71.12;100886.53;4130970;28;20050;-89
2021/06/21 05:02:46;;;;;;;10.68;3.58;;;;;;;12.24;70.71;100870.41;4105372;28;20074;-90
2021/06/21 05:04:46;;;;;;;11.05;4.65;;;;;;;12.23;70.94;100859.66;4156259;28;20033;-89
2021/06/21 05:06:47;;;;;;;10.40;5.00;;;;;;;12.18;71.68;100878.75;4127505;28;20037;-89
2021/06/21 05:08:47;;;;;;;6.40;4.30;;;;;;;12.14;72.14;100866.53;4126097;28;20413;-87
2021/06/21 05:10:48;;;;;;;11.00;5.35;;;;;;;12.34;72.02;100883.56;4136814;28;20036;-89
2021/06/21 05:12:48;;;;;;;11.80;5.40;;;;;;;12.00;72.08;100872.22;4150729;28;20554;-89
2021/06/21 05:14:49;;;;;;;5.95;4.68;;;;;;;12.23;71.91;100887.09;4151313;28;20049;-90
2021/06/21 05:16:49;;;;;;;11.40;4.40;;;;;;;12.11;71.76;100876.06;4109795;28;20065;-88
2021/06/21 05:18:50;;;;;;;9.80;5.03;;;;;;;12.27;71.90;100874.59;4141035;28;20454;-88
2021/06/21 05:20:50;;;;;;;9.73;6.20;;;;;;;12.06;72.08;100860.31;4131078;28;20160;-87
2021/06/21 05:22:52;;;;;;;9.05;5.28;;;;;;;12.14;72.13;100867.38;4131264;28;20034;-87
2021/06/21 05:24:54;;;;;;;12.68;5.80;;;;;;;12.08;71.81;100847.22;4139719;28;20498;-89
2021/06/21 05:26:54;;;;;;;9.73;4.78;;;;;;;12.11;72.75;100874.19;4123928;28;20055;-90
2021/06/21 05:28:55;;;;;;;10.32;3.83;;;;;;;12.03;72.64;100865.44;4128805;28;20082;-91
2021/06/21 05:30:55;;;;;;;7.95;4.45;;;;;;;12.16;72.13;100875.38;4141706;28;20517;-90
2021/06/21 05:32:56;;;;;;;7.53;5.13;;;;;;;11.93;72.81;100860.50;4127544;28;20502;-89
2021/06/21 05:34:56;;;;;;;9.25;5.78;;;;;;;12.16;72.53;100886.34;4143421;28;20037;-89
2021/06/21 05:36:57;;;;;;;13.38;7.07;;;;;;;12.02;72.30;100869.22;4120559;28;20053;-90
2021/06/21 05:38:57;;;;;;;6.88;4.82;;;;;;;12.07;72.31;100870.22;4118171;28;20031;-89
2021/06/21 05:40:58;;;;;;;9.32;5.95;;;;;;;12.03;72.08;100869.00;4147978;28;20041;-90
2021/06/21 05:42:58;;;;;;;8.30;5.93;;;;;;;12.17;72.33;100877.88;4141333;28;20030;-85
2021/06/21 05:44:59;;;;;;;7.28;4.30;;;;;;;12.23;72.05;100878.88;4148939;28;20029;-88
2021/06/21 05:46:59;;;;;;;7.90;5.07;;;;;;;12.27;72.02;100891.06;4146179;28;20523;-86
2021/06/21 05:49:00;;;;;;;11.57;5.18;;;;;;;12.09;72.33;100876.31;4147560;28;20029;-88
2021/06/21 05:51:01;;;;;;;6.97;4.28;;;;;;;12.19;71.93;100855.69;4150145;28;20030;-87
2021/06/21 05:53:01;;;;;;;5.90;4.95;;;;;;;12.16;72.17;100858.91;4142453;28;20111;-89
2021/06/21 05:55:02;;;;;;;7.90;4.55;;;;;;;12.00;72.34;100861.25;4132852;28;20045;-87
2021/06/21 05:57:04;;;;;;;6.18;4.63;;;;;;;12.09;72.11;100862.59;4140349;28;20062;-89
2021/06/21 05:59:05;;;;;;;9.85;4.53;;;;;;;12.09;72.15;100861.75;4150326;28;20034;-88
2021/06/21 06:01:05;;;;;;;6.80;4.43;;;;;;;12.15;72.56;100873.72;4153096;28;20563;-87
2021/06/21 06:03:05;;;;;;;6.53;3.95;;;;;;;12.22;72.44;100880.78;4122889;28;20117;-87
2021/06/21 06:05:06;;;;;;;6.47;4.57;;;;;;;12.18;72.32;100871.34;4146448;28;20049;-87
2021/06/21 06:07:07;;;;;;;7.95;4.88;;;;;;;12.17;72.37;100871.56;4145044;28;20093;-89
2021/06/21 06:09:07;;;;;;;12.98;5.82;;;;;;;12.04;72.86;100864.38;4120954;28;20097;-89
2021/06/21 06:11:08;;;;;;;6.65;5.30;;;;;;;12.08;72.70;100882.03;4136914;28;20105;-87
2021/06/21 06:13:08;;;;;;;7.75;5.55;;;;;;;12.11;72.94;100885.16;4146654;28;20025;-89
2021/06/21 06:15:10;;;;;;;7.50;5.00;;;;;;;12.18;72.87;100889.72;4139990;28;20045;-87
2021/06/21 06:17:11;;;;;;;10.13;4.88;;;;;;;12.23;72.89;100895.34;4146826;28;20120;-85
2021/06/21 06:19:11;;;;;;;7.22;4.18;;;;;;;12.17;72.93;100888.84;4147744;28;20071;-89
2021/06/21 06:21:17;;;;;;;7.55;5.30;;;;;;;12.22;72.87;100885.41;4146809;28;20037;-87
2021/06/21 06:23:17;;;;;;;4.55;4.10;;;;;;;12.35;72.97;100896.22;4120937;28;20038;-91
2021/06/21 06:25:18;;;;;;;9.93;4.90;;;;;;;12.14;73.17;100883.00;4140968;28;20037;-85
2021/06/21 06:27:18;;;;;;;10.88;3.85;;;;;;;12.05;73.03;100879.75;4144471;28;20048;-90
2021/06/21 06:29:19;;;;;;;8.88;5.00;;;;;;;12.14;73.66;100896.72;4145935;28;20060;-86
2021/06/21 06:31:23;;;;;;;8.40;4.45;;;;;;;11.98;73.31;100882.59;4143372;28;20475;-90
2021/06/21 06:33:23;;;;;;;9.07;4.90;;;;;;;12.08;73.54;100885.63;4149862;28;20858;-87
2021/06/21 06:35:24;;;;;;;7.43;4.45;;;;;;;12.22;73.56;100901.88;4148301;28;20065;-88
2021/06/21 06:37:24;;;;;;;9.77;4.75;;;;;;;12.24;73.52;100905.25;4140568;28;20026;-90
2021/06/21 06:39:25;;;;;;;8.60;4.13;;;;;;;12.21;73.22;100886.50;4148300;28;20034;-89
2021/06/21 06:41:25;;;;;;;9.70;4.63;;;;;;;12.19;73.34;100885.88;4146399;28;20480;-89
2021/06/21 06:43:29;;;;;;;8.80;4.50;;;;;;;12.17;73.69;100905.31;4111933;28;20594;-86
2021/06/21 06:45:29;;;;;;;8.57;4.97;;;;;;;12.14;73.50;100883.00;4132550;28;20030;-88
2021/06/21 06:47:31;;;;;;;8.80;5.75;;;;;;;12.13;73.51;100873.09;4150762;28;20026;-86
2021/06/21 06:49:32;;;;;;;10.82;5.47;;;;;;;12.36;73.13;100908.88;4149543;28;20564;-89
2021/06/21 06:51:41;;;;;;;9.55;5.25;;;;;;;12.39;72.98;100908.41;4143200;28;20061;-88
2021/06/21 06:54:26;;;;;;;11.05;5.05;;;;;;;12.31;73.16;100891.44;4154581;28;20057;-88
2021/06/21 06:58:25;;;;;;;6.57;4.53;;;;;;;12.53;73.44;100927.41;4146161;28;20100;-86
2021/06/21 07:00:25;;;;;;;7.43;4.65;;;;;;;12.64;73.08;100923.88;4119973;28;20038;-89
2021/06/21 07:02:26;;;;;;;7.57;4.25;;;;;;;12.51;72.99;100926.81;4127964;28;20121;-88
2021/06/21 07:04:29;;;;;;;12.25;5.78;;;;;;;12.55;72.98;100928.03;4129595;28;20160;-89
2021/06/21 07:06:29;;;;;;;9.50;4.70;;;;;;;12.56;73.11;100916.81;4151098;28;20106;-87
2021/06/21 07:08:32;;;;;;;9.13;5.32;;;;;;;12.64;73.50;100943.94;4146434;28;20053;-88
2021/06/21 07:10:32;;;;;;;13.27;4.93;;;;;;;12.75;73.00;100955.19;4146362;28;20033;-88
2021/06/21 07:12:33;;;;;;;6.65;4.82;;;;;;;12.86;73.06;100957.16;4137428;28;20111;-88
2021/06/21 07:14:34;;;;;;;7.43;4.20;;;;;;;12.89;72.61;100945.69;4149727;28;20143;-88
2021/06/21 07:16:35;;;;;;;8.63;4.30;;;;;;;12.86;72.66;100962.66;4138206;28;20034;-88
2021/06/21 07:18:36;;;;;;;6.75;3.88;;;;;;;12.92;72.58;100956.22;4130180;28;20044;-90
2021/06/21 07:20:36;;;;;;;6.32;4.38;;;;;;;12.71;72.14;100948.50;4144541;28;20696;-87
2021/06/21 07:22:37;;;;;;;4.38;3.72;;;;;;;12.74;72.23;100954.34;4121319;28;20408;-90
2021/06/21 07:24:38;;;;;;;4.88;3.80;;;;;;;12.74;72.03;100934.28;4144239;28;20033;-90
2021/06/21 07:26:38;;;;;;;7.50;4.22;;;;;;;12.62;71.68;100934.25;4121939;28;20035;-88
2021/06/21 07:28:39;;;;;;;5.95;3.60;;;;;;;12.94;71.86;100970.53;4146773;28;20499;-90
2021/06/21 07:30:39;;;;;;;8.65;4.30;;;;;;;12.94;72.02;100950.47;4137531;28;20172;-91
2021/06/21 07:32:40;;;;;;;7.70;3.97;;;;;;;12.87;72.15;100947.00;4150911;28;20046;-86
2021/06/21 07:34:41;;;;;;;8.30;3.60;;;;;;;12.82;71.71;100956.78;4159513;28;20042;-88
2021/06/21 07:36:42;;;;;;;9.02;3.88;;;;;;;12.87;71.95;100968.97;4144422;28;20839;-89
2021/06/21 07:38:43;;;;;;;4.45;4.00;;;;;;;12.91;71.81;100973.75;4145942;28;20033;-89
2021/06/21 07:40:43;;;;;;;8.57;4.80;;;;;;;12.73;72.07;100955.44;4150584;28;20065;-89
2021/06/21 07:42:44;;;;;;;6.22;3.25;;;;;;;12.64;72.28;100965.91;4149557;28;20042;-90
2021/06/21 07:44:44;;;;;;;9.70;3.92;;;;;;;12.77;72.25;100970.34;4146701;28;20033;-90
2021/06/21 07:46:45;;;;;;;5.18;3.60;;;;;;;12.83;72.29;100996.06;4148503;28;20041;-90
2021/06/21 07:48:45;;;;;;;8.23;3.78;;;;;;;12.91;72.26;101003.97;4127020;28;20727;-87
2021/06/21 07:50:46;;;;;;;10.05;4.97;;;;;;;12.64;72.09;100970.56;4152904;28;20243;-92
2021/06/21 07:52:47;;;;;;;5.57;3.80;;;;;;;12.94;72.10;100983.44;4150306;28;20041;-91
2021/06/21 07:54:49;;;;;;;5.38;3.05;;;;;;;12.90;71.69;100991.34;4151169;28;20054;-92
2021/06/21 07:56:50;;;;;;;5.32;2.90;;;;;;;12.96;71.86;100992.28;4119092;28;20053;-89
2021/06/21 07:58:50;;;;;;;6.43;3.40;;;;;;;12.90;71.92;101006.97;4149627;28;20053;-88
2021/06/21 08:00:51;;;;;;;6.18;3.13;;;;;;;12.83;71.84;101001.53;4140868;28;20552;-89
2021/06/21 08:02:52;;;;;;;5.07;3.33;;;;;;;12.81;71.53;101001.78;4153141;28;20040;-87
2021/06/21 08:04:52;;;;;;;4.85;2.53;;;;;;;12.77;71.28;100994.25;4151132;28;20090;-87
2021/06/21 08:06:53;;;;;;;5.60;2.92;;;;;;;12.59;71.88;101017.94;4133999;28;20030;-85
2021/06/21 08:08:53;;;;;;;6.53;3.03;;;;;;;12.56;72.23;101006.56;4151523;28;20033;-87
2021/06/21 08:10:54;;;;;;;4.07;2.40;;;;;;;12.71;71.78;101007.00;4129522;28;20471;-86
2021/06/21 08:12:54;;;;;;;4.10;2.38;;;;;;;12.65;72.19;101022.50;4134616;28;20427;-88
2021/06/21 08:14:55;;;;;;;6.57;3.58;;;;;;;12.78;72.24;101042.63;4151778;28;20159;-85
2021/06/21 08:16:55;;;;;;;6.63;2.75;;;;;;;12.69;72.04;101017.38;4143228;28;20037;-87
2021/06/21 08:18:56;;;;;;;4.95;2.47;;;;;;;12.78;71.88;101032.47;4149601;28;20765;-89
2021/06/21 08:20:56;;;;;;;7.35;3.70;;;;;;;12.60;71.65;101035.25;4134688;28;20564;-86
2021/06/21 08:22:57;;;;;;;4.78;3.10;;;;;;;12.61;72.15;101046.00;4143460;28;20030;-88
2021/06/21 08:24:57;;;;;;;8.35;3.42;;;;;;;12.69;72.04;101053.09;4153517;28;20564;-88
2021/06/21 08:27:01;;;;;;;7.63;2.80;;;;;;;12.62;71.23;101041.34;4124705;28;20060;-87
2021/06/21 08:29:01;;;;;;;6.75;3.15;;;;;;;12.62;71.82;101063.31;4145288;28;20034;-87
2021/06/21 08:31:02;;;;;;;6.03;3.00;;;;;;;12.70;71.80;101051.16;4146951;28;20057;-87
2021/06/21 08:33:03;;;;;;;3.67;2.30;;;;;;;12.56;72.41;101065.09;4148750;28;20132;-87
2021/06/21 08:35:03;;;;;;;3.78;2.08;;;;;;;12.50;72.04;101051.44;4145553;28;20550;-87
2021/06/21 08:37:05;;;;;;;6.20;2.60;;;;;;;12.45;71.55;101039.25;4146477;28;20041;-93
2021/06/21 08:39:05;;;;;;;7.00;3.25;;;;;;;12.50;71.72;101048.69;4135920;28;20042;-90
2021/06/21 08:41:06;;;;;;;4.03;2.90;;;;;;;12.78;71.94;101070.09;4153917;28;20096;-90
2021/06/21 08:43:07;;;;;;;5.80;2.40;;;;;;;12.50;72.56;101067.91;4173864;28;20037;-90
2021/06/21 08:45:09;;;;;;;8.68;2.88;;;;;;;12.64;71.52;101061.19;4163240;28;20632;-88
2021/06/21 08:47:13;;;;;;;5.80;2.47;;;;;;;12.73;71.79;101073.53;4145686;28;20026;-90
2021/06/21 08:49:15;;;;;;;4.80;2.25;;;;;;;12.55;72.09;101052.41;4144118;28;20042;-89
2021/06/21 08:51:17;;;;;;;6.78;2.72;;;;;;;12.77;71.46;101085.72;4137459;28;20037;-92
2021/06/21 08:53:17;;;;;;;7.05;2.33;;;;;;;12.69;71.43;101069.56;4151091;28;20040;-90
2021/06/21 08:55:18;;;;;;;5.13;2.85;;;;;;;12.69;71.92;101069.56;4127922;28;20756;-89
2021/06/21 08:57:19;;;;;;;7.53;3.03;;;;;;;12.73;72.02;101079.03;4132058;28;20100;-87
2021/06/21 08:59:19;;;;;;;7.45;2.78;;;;;;;12.60;71.68;101060.78;4154194;28;20091;-88
2021/06/21 09:01:20;;;;;;;3.80;2.03;;;;;;;12.82;71.84;101082.25;4153008;28;20077;-87
2021/06/21 09:03:20;;;;;;;4.13;2.40;;;;;;;12.85;71.58;101080.97;4167173;28;20048;-88
2021/06/21 09:05:21;;;;;;;4.43;2.78;;;;;;;12.67;71.82;101052.47;4141088;28;20998;-89
2021/06/21 09:07:26;;;;;;;5.47;2.67;;;;;;;12.89;71.12;101071.25;4148500;28;20129;-88
2021/06/21 09:09:34;;;;;;;6.30;3.50;;;;;;;12.67;71.60;101063.47;4168280;28;20022;-91
2021/06/21 09:11:47;;;;;;;3.90;2.30;;;;;;;12.80;71.38;101078.91;4145564;28;20037;-85
2021/06/21 09:13:50;;;;;;;5.70;2.55;;;;;;;12.63;71.18;101074.06;4150135;28;20042;-86
2021/06/21 09:15:54;;;;;;;5.80;2.47;;;;;;;12.54;71.59;101058.13;4143121;28;20037;-87
2021/06/21 09:17:57;;;;;;;2.88;1.90;;;;;;;12.42;71.61;101063.56;4168180;28;20479;-86
2021/06/21 09:20:01;;;;;;;3.20;1.98;;;;;;;12.68;71.32;101089.00;4167317;28;20025;-91
2021/06/21 09:22:04;;;;;;;7.15;2.00;;;;;;;12.63;71.26;101087.78;4165901;28;20060;-89
2021/06/21 09:24:16;;;;;;;5.20;3.15;;;;;;;12.46;72.09;101094.97;4152471;28;20137;-87
2021/06/21 09:26:26;;;;;;;4.35;2.40;;;;;;;12.27;71.75;101080.44;4164846;28;20055;-88
2021/06/21 09:28:35;;;;;;;4.57;2.13;;;;;;;12.45;71.57;101074.94;4147209;28;20029;-87
2021/06/21 09:30:50;;;;;;;4.60;2.00;;;;;;;12.48;71.65;101090.09;4166578;28;20519;-86
2021/06/21 09:32:54;;;;;;;4.95;1.95;;;;;;;12.53;71.66;101067.44;4144347;28;20021;-88
2021/06/21 09:34:55;;;;;;;5.30;2.72;;;;;;;12.61;71.98;101102.84;4150743;28;20041;-88